createdAt,value
2022-09-04T00:01:30.614Z,21.60
2022-09-04T00:04:11.962Z,21.50
2022-09-04T00:06:43.534Z,21.50
2022-09-04T00:09:33.478Z,21.50
2022-09-04T00:12:05.411Z,21.40
2022-09-04T00:14:32.077Z,21.40
2022-09-04T00:17:04.739Z,21.40
2022-09-04T00:19:34.463Z,21.30
2022-09-04T00:22:02.115Z,21.20
2022-09-04T00:24:32.243Z,21.20
2022-09-04T00:27:13.230Z,21.20
2022-09-04T00:30:01.713Z,21.20
2022-09-04T00:32:38.526Z,21.10
2022-09-04T00:35:11.530Z,21.10
2022-09-04T00:37:39.854Z,21.10
2022-09-04T00:40:25.780Z,21.00
2022-09-04T00:43:06.574Z,21.00
2022-09-04T00:45:43.235Z,21.00
2022-09-04T00:48:12.754Z,20.90
2022-09-04T00:50:51.711Z,20.90
2022-09-04T00:53:30.007Z,20.90
2022-09-04T00:56:05.398Z,20.90
2022-09-04T00:58:38.334Z,20.80
2022-09-04T01:01:05.481Z,20.80
2022-09-04T01:03:39.194Z,20.80
2022-09-04T01:06:15.393Z,20.70
2022-09-04T01:09:01.307Z,20.70
2022-09-04T01:11:33.935Z,20.70
2022-09-04T01:14:23.628Z,20.60
2022-09-04T01:16:55.200Z,20.60
2022-09-04T01:19:30.131Z,20.60
2022-09-04T01:21:56.756Z,20.60
2022-09-04T01:24:46.091Z,20.50
2022-09-04T01:27:22.528Z,20.50
2022-09-04T01:29:56.396Z,20.50
2022-09-04T01:32:23.395Z,20.50
2022-09-04T01:35:07.598Z,20.40
2022-09-04T01:37:57.883Z,20.30
2022-09-04T01:40:36.411Z,20.30
2022-09-04T01:43:08.339Z,20.30
2022-09-04T01:45:41.202Z,20.30
2022-09-04T01:48:10.400Z,20.20
2022-09-04T01:50:38.169Z,20.20
2022-09-04T01:53:17.926Z,20.20
2022-09-04T01:55:44.815Z,20.20
2022-09-04T01:58:17.310Z,20.10
2022-09-04T02:00:47.430Z,20.10
2022-09-04T02:03:24.976Z,20.10
2022-09-04T02:06:05.132Z,20.10
2022-09-04T02:08:31.749Z,20.10
2022-09-04T02:11:09.350Z,20.00
2022-09-04T02:14:04.229Z,20.00
2022-09-04T02:16:37.635Z,20.00
2022-09-04T02:19:04.268Z,20.00
2022-09-04T02:21:32.899Z,20.00
2022-09-04T02:24:08.472Z,19.90
2022-09-04T02:26:45.744Z,19.90
2022-09-04T02:29:22.484Z,19.90
2022-09-04T02:31:54.720Z,19.90
2022-09-04T02:34:38.194Z,19.90
2022-09-04T02:37:14.092Z,19.80
2022-09-04T02:39:43.806Z,19.80
2022-09-04T02:42:14.508Z,19.80
2022-09-04T02:44:52.940Z,19.80
2022-09-04T02:47:29.103Z,19.80
2022-09-04T02:50:01.748Z,19.70
2022-09-04T02:52:33.401Z,19.70
2022-09-04T02:55:12.595Z,19.70
2022-09-04T02:57:55.033Z,19.70
2022-09-04T03:00:27.330Z,19.70
2022-09-04T03:03:15.200Z,19.60
2022-09-04T03:05:49.980Z,19.60
2022-09-04T03:08:30.316Z,19.60
2022-09-04T03:11:06.144Z,19.60
2022-09-04T03:13:40.149Z,19.50
2022-09-04T03:16:15.615Z,19.50
2022-09-04T03:18:51.418Z,19.50
2022-09-04T03:21:25.011Z,19.40
2022-09-04T03:23:57.835Z,19.40
2022-09-04T03:26:29.744Z,19.40
2022-09-04T03:29:02.369Z,19.40
2022-09-04T03:31:31.492Z,19.30
2022-09-04T03:34:05.129Z,19.30
2022-09-04T03:36:40.124Z,19.30
2022-09-04T03:39:16.628Z,19.20
2022-09-04T03:41:50.617Z,19.20
2022-09-04T03:44:22.914Z,19.10
2022-09-04T03:46:49.643Z,19.10
2022-09-04T03:49:22.391Z,19.00
2022-09-04T03:52:00.528Z,19.00
2022-09-04T03:54:37.941Z,19.00
2022-09-04T03:57:23.538Z,19.00
2022-09-04T04:00:11.515Z,19.00
2022-09-04T04:02:41.097Z,18.90
2022-09-04T04:05:17.303Z,19.00
2022-09-04T04:07:50.262Z,19.00
2022-09-04T04:10:37.173Z,18.90
2022-09-04T04:13:16.161Z,18.90
2022-09-04T04:15:56.976Z,18.90
2022-09-04T04:18:23.800Z,18.90
2022-09-04T04:21:03.966Z,18.90
2022-09-04T04:23:37.497Z,18.90
2022-09-04T04:26:15.445Z,18.90
2022-09-04T04:29:00.165Z,18.80
2022-09-04T04:31:35.210Z,18.80
2022-09-04T04:34:10.579Z,18.80
2022-09-04T04:36:40.244Z,18.80
2022-09-04T04:39:28.157Z,18.80
2022-09-04T04:42:22.953Z,18.80
2022-09-04T04:45:17.982Z,18.80
2022-09-04T04:48:03.597Z,18.80
2022-09-04T04:50:50.031Z,18.70
2022-09-04T04:53:26.599Z,18.70
2022-09-04T04:56:14.149Z,18.70
2022-09-04T04:58:53.851Z,18.70
2022-09-04T05:01:43.281Z,18.70
2022-09-04T05:04:17.526Z,18.70
2022-09-04T05:06:52.187Z,18.60
2022-09-04T05:09:18.931Z,18.60
2022-09-04T05:12:03.596Z,18.60
2022-09-04T05:14:53.571Z,18.60
2022-09-04T05:17:39.010Z,18.60
2022-09-04T05:20:20.337Z,18.60
2022-09-04T05:22:46.980Z,18.60
2022-09-04T05:25:18.330Z,18.70
2022-09-04T05:27:56.888Z,18.60
2022-09-04T05:30:31.054Z,18.60
2022-09-04T05:33:03.483Z,18.60
2022-09-04T05:35:59.654Z,18.70
2022-09-04T05:38:30.678Z,18.70
2022-09-04T05:41:07.843Z,18.70
2022-09-04T05:44:00.306Z,18.60
2022-09-04T05:46:29.690Z,18.60
2022-09-04T05:49:05.318Z,18.70
2022-09-04T05:51:42.368Z,18.70
2022-09-04T05:54:28.369Z,18.70
2022-09-04T05:56:58.035Z,18.70
2022-09-04T05:59:44.115Z,18.80
2022-09-04T06:02:11.309Z,18.80
2022-09-04T06:04:46.658Z,18.80
2022-09-04T06:07:16.300Z,18.80
2022-09-04T06:09:45.940Z,18.80
2022-09-04T06:12:28.701Z,18.80
2022-09-04T06:14:58.766Z,18.80
2022-09-04T06:17:37.658Z,18.90
2022-09-04T06:20:16.618Z,18.90
2022-09-04T06:22:55.042Z,19.00
2022-09-04T06:25:30.504Z,19.00
2022-09-04T06:28:06.466Z,19.10
2022-09-04T06:30:47.976Z,19.10
2022-09-04T06:33:20.899Z,19.20
2022-09-04T06:35:47.474Z,19.20
2022-09-04T06:38:14.485Z,19.20
2022-09-04T06:40:48.627Z,19.20
2022-09-04T06:43:31.921Z,19.30
2022-09-04T06:46:02.936Z,19.30
2022-09-04T06:48:47.304Z,19.30
2022-09-04T06:51:29.502Z,19.20
2022-09-04T06:54:14.552Z,19.30
2022-09-04T06:56:55.817Z,19.30
2022-09-04T06:59:26.695Z,19.30
2022-09-04T07:02:01.051Z,19.30
2022-09-04T07:04:30.567Z,19.30
2022-09-04T07:07:12.759Z,19.40
2022-09-04T07:09:45.504Z,19.40
2022-09-04T07:12:33.748Z,19.50
2022-09-04T07:15:19.302Z,19.50
2022-09-04T07:17:45.879Z,19.60
2022-09-04T07:20:17.143Z,19.50
2022-09-04T07:23:10.079Z,19.50
2022-09-04T07:25:36.719Z,19.50
2022-09-04T07:28:03.985Z,19.60
2022-09-04T07:30:34.661Z,19.70
2022-09-04T07:33:05.428Z,19.80
2022-09-04T07:35:44.416Z,19.90
2022-09-04T07:38:11.447Z,20.00
2022-09-04T07:40:51.098Z,20.20
2022-09-04T07:43:39.809Z,20.30
2022-09-04T07:46:13.787Z,20.30
2022-09-04T07:48:43.946Z,20.40
2022-09-04T07:51:30.845Z,20.50
2022-09-04T07:54:33.216Z,20.60
2022-09-04T07:57:03.579Z,20.60
2022-09-04T07:59:32.871Z,20.60
2022-09-04T08:02:14.679Z,20.70
2022-09-04T08:04:55.942Z,20.80
2022-09-04T08:07:28.286Z,21.00
2022-09-04T08:10:03.846Z,21.10
2022-09-04T08:12:39.801Z,21.20
2022-09-04T08:15:25.156Z,21.30
2022-09-04T08:18:01.509Z,21.40
2022-09-04T08:20:38.707Z,21.50
2022-09-04T08:23:05.669Z,21.60
2022-09-04T08:25:41.124Z,21.70
2022-09-04T08:28:26.496Z,21.80
2022-09-04T08:31:07.704Z,21.90
2022-09-04T08:33:53.994Z,22.00
2022-09-04T08:36:41.397Z,22.00
2022-09-04T08:39:16.948Z,22.10
2022-09-04T08:41:47.985Z,22.20
2022-09-04T08:44:14.570Z,22.30
2022-09-04T08:46:49.353Z,22.30
2022-09-04T08:49:16.977Z,22.40
2022-09-04T08:51:43.563Z,22.50
2022-09-04T08:54:15.937Z,22.60
2022-09-04T08:56:42.594Z,22.60
2022-09-04T08:59:24.487Z,22.70
2022-09-04T09:02:10.218Z,22.70
2022-09-04T09:04:55.077Z,22.80
2022-09-04T09:07:40.555Z,22.90
2022-09-04T09:10:15.057Z,22.90
2022-09-04T09:13:00.506Z,23.10
2022-09-04T09:15:46.058Z,23.10
2022-09-04T09:18:25.034Z,23.20
2022-09-04T09:21:12.466Z,23.20
2022-09-04T09:23:39.233Z,23.30
2022-09-04T09:26:15.009Z,23.30
2022-09-04T09:28:47.790Z,23.40
2022-09-04T09:31:34.374Z,23.50
2022-09-04T09:34:11.609Z,23.50
2022-09-04T09:37:10.800Z,23.60
2022-09-04T09:39:56.785Z,23.70
2022-09-04T09:42:49.332Z,23.80
2022-09-04T09:45:31.648Z,23.90
2022-09-04T09:48:17.054Z,23.90
2022-09-04T09:51:01.980Z,24.00
2022-09-04T09:53:35.256Z,24.10
2022-09-04T09:56:20.499Z,24.20
2022-09-04T09:59:06.079Z,24.30
2022-09-04T10:01:49.194Z,24.40
2022-09-04T10:04:21.491Z,24.50
2022-09-04T10:07:03.201Z,24.50
2022-09-04T10:09:32.744Z,24.60
2022-09-04T10:12:25.640Z,24.70
2022-09-04T10:15:11.194Z,24.70
2022-09-04T10:18:00.647Z,24.80
2022-09-04T10:20:47.933Z,24.80
2022-09-04T10:23:35.823Z,24.80
2022-09-04T10:26:31.888Z,24.80
2022-09-04T10:29:11.873Z,24.90
2022-09-04T10:31:49.083Z,24.90
2022-09-04T10:34:39.714Z,24.90
2022-09-04T10:37:06.330Z,24.90
2022-09-04T10:40:07.039Z,24.90
2022-09-04T10:42:52.545Z,25.00
2022-09-04T10:45:25.242Z,25.10
2022-09-04T10:48:04.103Z,25.10
2022-09-04T10:50:30.878Z,25.10
2022-09-04T10:53:06.734Z,25.10
2022-09-04T10:55:50.666Z,25.20
2022-09-04T10:58:17.279Z,25.20
2022-09-04T11:00:50.022Z,25.20
2022-09-04T11:03:16.687Z,25.30
2022-09-04T11:05:44.397Z,25.40
2022-09-04T11:08:36.222Z,25.40
2022-09-04T11:11:09.568Z,25.40
2022-09-04T11:13:42.313Z,25.50
2022-09-04T11:16:09.899Z,25.60
2022-09-04T11:18:46.185Z,25.60
2022-09-04T11:21:32.370Z,25.60
2022-09-04T11:24:17.580Z,25.70
2022-09-04T11:26:54.779Z,25.80
2022-09-04T11:29:34.916Z,25.90
2022-09-04T11:32:01.662Z,26.00
2022-09-04T11:34:34.474Z,26.00
2022-09-04T11:37:31.812Z,26.00
2022-09-04T11:40:17.279Z,26.10
2022-09-04T11:43:02.763Z,26.20
2022-09-04T11:45:41.462Z,26.30
2022-09-04T11:48:11.953Z,26.30
2022-09-04T11:50:44.431Z,26.40
2022-09-04T11:53:33.531Z,26.60
2022-09-04T11:56:22.044Z,26.60
2022-09-04T11:58:59.348Z,26.60
2022-09-04T12:01:32.056Z,26.80
2022-09-04T12:04:01.797Z,26.80
2022-09-04T12:06:37.677Z,26.90
2022-09-04T12:09:07.198Z,27.00
2022-09-04T12:12:00.962Z,27.00
2022-09-04T12:14:28.979Z,27.00
2022-09-04T12:16:55.572Z,27.10
2022-09-04T12:19:26.897Z,27.20
2022-09-04T12:22:14.418Z,27.20
2022-09-04T12:24:56.344Z,27.20
2022-09-04T12:27:44.207Z,27.20
2022-09-04T12:30:37.344Z,27.20
2022-09-04T12:33:33.207Z,27.30
2022-09-04T12:36:14.391Z,27.40
2022-09-04T12:39:01.296Z,27.40
2022-09-04T12:41:50.012Z,27.40
2022-09-04T12:44:22.981Z,27.40
2022-09-04T12:46:50.172Z,27.30
2022-09-04T12:49:32.048Z,27.20
2022-09-04T12:52:08.576Z,27.10
2022-09-04T12:54:35.253Z,27.10
2022-09-04T12:57:11.587Z,27.10
2022-09-04T12:59:47.308Z,27.20
2022-09-04T13:02:14.105Z,27.30
2022-09-04T13:04:46.992Z,27.30
2022-09-04T13:07:15.854Z,27.40
2022-09-04T13:10:09.063Z,27.60
2022-09-04T13:12:54.557Z,27.70
2022-09-04T13:15:42.700Z,27.80
2022-09-04T13:18:31.555Z,28.00
2022-09-04T13:21:18.886Z,28.10
2022-09-04T13:23:57.173Z,28.30
2022-09-04T13:26:31.140Z,28.30
2022-09-04T13:29:08.427Z,28.40
2022-09-04T13:31:53.849Z,28.50
2022-09-04T13:34:34.118Z,28.40
2022-09-04T13:37:21.092Z,28.30
2022-09-04T13:40:13.876Z,28.50
2022-09-04T13:42:54.586Z,28.70
2022-09-04T13:45:23.629Z,28.80
2022-09-04T13:47:54.195Z,28.80
2022-09-04T13:50:26.131Z,28.60
2022-09-04T13:53:12.590Z,28.60
2022-09-04T13:55:41.129Z,28.60
2022-09-04T13:58:21.601Z,28.70
2022-09-04T14:01:00.301Z,28.70
2022-09-04T14:03:31.489Z,28.60
2022-09-04T14:05:58.778Z,28.50
2022-09-04T14:08:31.179Z,28.30
2022-09-04T14:11:16.887Z,28.10
2022-09-04T14:13:46.546Z,28.00
2022-09-04T14:16:14.478Z,27.90
2022-09-04T14:18:47.844Z,27.90
2022-09-04T14:21:24.200Z,27.90
2022-09-04T14:24:09.890Z,28.00
2022-09-04T14:26:57.583Z,28.00
2022-09-04T14:29:36.276Z,28.00
2022-09-04T14:32:08.541Z,28.00
2022-09-04T14:34:41.136Z,28.10
2022-09-04T14:37:16.848Z,28.20
2022-09-04T14:39:57.812Z,28.30
2022-09-04T14:42:26.827Z,28.40
2022-09-04T14:44:53.837Z,28.50
2022-09-04T14:47:39.274Z,28.60
2022-09-04T14:50:10.214Z,28.70
2022-09-04T14:52:41.873Z,28.80
2022-09-04T14:55:14.058Z,28.90
2022-09-04T14:57:52.128Z,29.00
2022-09-04T15:00:19.819Z,29.10
2022-09-04T15:02:55.672Z,29.10
2022-09-04T15:05:24.103Z,29.10
2022-09-04T15:07:50.702Z,29.00
2022-09-04T15:10:32.931Z,29.00
2022-09-04T15:13:16.250Z,29.00
2022-09-04T15:15:46.889Z,29.00
2022-09-04T15:18:29.699Z,29.10
2022-09-04T15:20:59.551Z,29.20
2022-09-04T15:23:41.193Z,29.10
2022-09-04T15:26:10.602Z,29.10
2022-09-04T15:28:38.469Z,29.20
2022-09-04T15:31:25.496Z,29.30
2022-09-04T15:33:58.952Z,29.40
2022-09-04T15:36:25.912Z,29.50
2022-09-04T15:38:55.581Z,29.60
2022-09-04T15:41:40.981Z,29.70
2022-09-04T15:44:30.148Z,29.70
2022-09-04T15:47:05.962Z,29.80
2022-09-04T15:49:51.338Z,30.00
2022-09-04T15:52:29.943Z,30.30
2022-09-04T15:55:02.410Z,30.70
2022-09-04T15:57:35.963Z,30.90
2022-09-04T16:00:07.955Z,31.20
2022-09-04T16:02:38.262Z,31.20
2022-09-04T16:05:14.873Z,31.20
2022-09-04T16:08:03.536Z,31.10
2022-09-04T16:10:42.134Z,30.90
2022-09-04T16:13:28.928Z,31.00
2022-09-04T16:16:07.185Z,30.90
2022-09-04T16:18:40.225Z,31.50
2022-09-04T16:21:29.158Z,32.00
2022-09-04T16:23:59.661Z,32.10
2022-09-04T16:26:30.739Z,31.70
2022-09-04T16:29:06.224Z,31.30
2022-09-04T16:31:36.804Z,31.20
2022-09-04T16:34:18.624Z,31.00
2022-09-04T16:36:48.262Z,31.00
2022-09-04T16:39:24.039Z,31.10
2022-09-04T16:41:50.699Z,31.60
2022-09-04T16:44:25.740Z,32.00
2022-09-04T16:47:05.940Z,32.00
2022-09-04T16:49:51.777Z,32.00
2022-09-04T16:52:43.908Z,31.80
2022-09-04T16:55:24.984Z,31.50
2022-09-04T16:57:53.360Z,30.90
2022-09-04T17:00:22.256Z,30.40
2022-09-04T17:02:57.474Z,30.00
2022-09-04T17:05:39.929Z,29.80
2022-09-04T17:08:25.549Z,29.50
2022-09-04T17:11:09.228Z,29.30
2022-09-04T17:13:45.576Z,29.00
2022-09-04T17:16:17.404Z,28.80
2022-09-04T17:18:46.559Z,28.70
2022-09-04T17:24:39.345Z,28.50
2022-09-04T17:29:13.811Z,28.30
2022-09-04T17:29:19.622Z,28.40
2022-09-04T17:30:14.982Z,28.20
2022-09-04T17:40:37.044Z,28.10
2022-09-04T17:40:48.282Z,28.10
2022-09-04T17:40:53.465Z,28.10
2022-09-04T17:42:04.537Z,28.00
2022-09-04T17:44:35.918Z,27.90
2022-09-04T17:47:08.832Z,27.80
2022-09-04T17:49:39.890Z,27.80
2022-09-04T17:52:08.642Z,27.70
2022-09-04T17:54:42.987Z,27.60
2022-09-04T17:57:34.299Z,27.60
2022-09-04T18:00:09.070Z,27.50
2022-09-04T18:02:35.739Z,27.40
2022-09-04T18:05:11.623Z,27.20
2022-09-04T18:08:08.101Z,27.20
2022-09-04T18:10:32.416Z,27.00
2022-09-04T18:13:08.814Z,26.90
2022-09-04T18:16:07.480Z,26.80
2022-09-04T18:18:44.454Z,26.70
2022-09-04T18:21:29.859Z,26.60
2022-09-04T18:23:59.496Z,26.50
2022-09-04T18:26:40.689Z,26.40
2022-09-04T18:30:18.758Z,26.30
2022-09-04T18:37:15.725Z,26.20
2022-09-04T18:37:41.565Z,26.10
2022-09-04T18:38:30.681Z,26.00
2022-09-04T18:42:42.937Z,25.90
2022-09-04T18:50:33.446Z,25.80
2022-09-04T18:50:37.222Z,25.70
2022-09-04T18:50:40.194Z,25.90
2022-09-04T18:52:17.510Z,25.60
2022-09-04T18:54:45.967Z,25.50
2022-09-04T18:57:24.359Z,25.50
2022-09-04T18:59:59.782Z,25.40
2022-09-04T19:02:41.418Z,25.40
2022-09-04T19:05:14.415Z,25.30
2022-09-04T19:07:42.890Z,25.20
2022-09-04T19:10:12.558Z,25.20
2022-09-04T19:12:47.589Z,25.10
2022-09-04T19:15:36.081Z,25.00
2022-09-04T19:18:18.987Z,25.00
2022-09-04T19:20:54.630Z,24.90
2022-09-04T19:23:32.784Z,24.90
2022-09-04T19:26:00.909Z,24.80
2022-09-04T19:28:39.544Z,24.80
2022-09-04T19:31:17.414Z,24.70
2022-09-04T19:33:49.790Z,24.60
2022-09-04T19:36:35.237Z,24.60
2022-09-04T19:46:03.738Z,24.50
2022-09-04T19:46:04.938Z,24.50
2022-09-04T19:46:12.951Z,24.40
2022-09-04T19:47:52.032Z,24.30
2022-09-04T19:53:35.188Z,24.20
2022-09-04T19:53:38.561Z,24.10
2022-09-04T19:56:11.845Z,24.10
2022-09-04T19:58:46.109Z,24.00
2022-09-04T20:01:16.779Z,24.00
2022-09-04T20:04:02.237Z,23.90
2022-09-04T20:06:30.581Z,23.90
2022-09-04T20:09:07.295Z,23.80
2022-09-04T20:11:37.845Z,23.70
2022-09-04T20:14:24.736Z,23.70
2022-09-04T20:16:51.352Z,23.70
2022-09-04T20:19:28.037Z,23.60
2022-09-04T20:21:59.486Z,23.60
2022-09-04T20:24:32.371Z,23.50
2022-09-04T20:27:01.183Z,23.50
2022-09-04T20:29:27.764Z,23.40
2022-09-04T20:32:14.240Z,23.40
2022-09-04T20:34:57.236Z,23.40
2022-09-04T20:37:27.691Z,23.30
2022-09-04T20:40:12.729Z,23.30
2022-09-04T20:43:07.084Z,23.20
2022-09-04T20:50:05.095Z,23.20
2022-09-04T20:52:44.048Z,23.10
2022-09-04T20:52:57.196Z,23.10
2022-09-04T20:54:29.006Z,23.00
2022-09-04T21:02:05.147Z,23.00
2022-09-04T21:03:14.860Z,23.00
2022-09-04T21:03:29.946Z,22.90
2022-09-04T21:06:07.292Z,22.90
2022-09-04T21:08:40.052Z,22.80
2022-09-04T21:11:14.872Z,22.80
2022-09-04T21:13:59.193Z,22.70
2022-09-04T21:16:52.434Z,22.60
2022-09-04T21:19:31.334Z,22.60
2022-09-04T21:22:33.964Z,22.60
2022-09-04T21:25:12.483Z,22.60
2022-09-04T21:28:03.845Z,22.50
2022-09-04T21:30:49.108Z,22.50
2022-09-04T21:33:36.934Z,22.40
2022-09-04T21:36:26.622Z,22.40
2022-09-04T21:39:12.583Z,22.30
2022-09-04T21:41:48.727Z,22.30
2022-09-04T21:44:24.340Z,22.30
2022-09-04T21:46:51.051Z,22.20
2022-09-04T21:49:26.597Z,22.20
2022-09-04T21:52:01.385Z,22.10
2022-09-04T21:54:37.753Z,22.10
2022-09-04T22:02:32.371Z,22.10
2022-09-04T22:02:45.250Z,22.00
2022-09-04T22:03:15.137Z,22.00
2022-09-04T22:05:47.284Z,21.90
2022-09-04T22:13:33.660Z,21.90
2022-09-04T22:13:40.857Z,21.80
2022-09-04T22:14:39.080Z,21.80
2022-09-04T22:17:17.811Z,21.80
2022-09-04T22:19:53.591Z,21.70
2022-09-04T22:22:23.341Z,21.70
2022-09-04T22:25:11.207Z,21.70
2022-09-04T22:28:07.923Z,21.70
2022-09-04T22:30:50.277Z,21.70
2022-09-04T22:33:32.478Z,21.60
2022-09-04T22:36:23.300Z,21.60
2022-09-04T22:38:58.066Z,21.60
2022-09-04T22:41:24.669Z,21.50
2022-09-04T22:44:09.556Z,21.50
2022-09-04T22:46:45.915Z,21.50
2022-09-04T22:49:31.300Z,21.50
2022-09-04T22:52:10.416Z,21.40
2022-09-04T22:54:39.918Z,21.40
2022-09-04T22:57:08.115Z,21.40
2022-09-04T22:59:50.738Z,21.40
2022-09-04T23:02:55.443Z,21.30
2022-09-04T23:05:36.427Z,21.30
2022-09-04T23:13:43.533Z,21.20
2022-09-04T23:13:56.779Z,21.20
2022-09-04T23:14:06.501Z,21.10
2022-09-04T23:16:34.577Z,21.10
2022-09-04T23:23:35.034Z,21.10
2022-09-04T23:26:47.009Z,21.10
2022-09-04T23:26:47.999Z,21.00
2022-09-04T23:27:49.893Z,21.00
2022-09-04T23:30:25.762Z,21.00
2022-09-04T23:33:12.645Z,20.90
2022-09-04T23:35:57.954Z,20.90
2022-09-04T23:38:38.046Z,20.90
2022-09-04T23:41:14.454Z,20.80
2022-09-04T23:43:59.724Z,20.80
2022-09-04T23:46:26.514Z,20.80
2022-09-04T23:49:07.037Z,20.80
2022-09-04T23:51:42.671Z,20.70
2022-09-04T23:54:12.736Z,20.70
2022-09-04T23:56:57.493Z,20.70
2022-09-04T23:59:37.597Z,20.60
